Hovedside
METAR-TAF:

METAR-TAF

Lufthavner :

Florø lufthavn

Florø, Norge

breddegrad: 61-35N, lengdegrad: 005-02E, høyde over havet: 0 m

Gjeldene værobservasjon

Denne rapporten ble laget for 16 minutter siden, klokken 14:50 UTC
Vind 9 kt fra Øst-sørøst
Temperatur 3°C
Luftfuktighet 75%
Trykk 1012 hPa
Sikt 10 km eller mer
Få skyer i en høyde av 1000 ft
Spredte skyer i en høyde av 2500 ft
Brutte skyer i en høyde av 5000 ft
regnbyger i nærheten

METAR: ENFL 211450Z 12009KT 9999 VCSH FEW010 SCT025 BKN050 03/M01 Q1012

Tid: 16:06 (15:06 UTC)

Varsel

Denne rapporten ble laget for 1 time og 6 minutter siden, klokken 14:00 UTC
Varsel gyldig fra 21. klokken 15 UTC til 21. klokken 21 UTC
Vind 15 kt fra Øst
Sikt 10 km eller mer
Få skyer i en høyde av 1000 ft
Spredte skyer i en høyde av 4000 ft

TAF: ENFL 211400Z 2115/2121 10015KT 9999 FEW010 SCT040

Værobservasjoner og værvarsel for over 4000 flyplasser (METAR- og TAF-rapporter).

Tilgjengelige stasjoner er representert av de røde og gule prikkene på kartet.

Hold musepekeren over prikken for å se navnet på stasjonen.

Klikk så for å se værobservasjoner og -varsler.

For å forandre kartet kan du klikke på den grønne knappen med svart kryss for å zoome inn, på den grønne knappen med strek for å zoome ut, eller på de grønne pilene for å se tilstøtende kart.


METAR-TAF: